createdAt,value
2023-11-16T00:00:47.166Z,93.76
2023-11-16T00:03:38.954Z,93.36
2023-11-16T00:06:11.952Z,93.56
2023-11-16T00:08:40.946Z,94.12
2023-11-16T00:11:10.164Z,93.94
2023-11-16T00:13:39.050Z,93.97
2023-11-16T00:17:18.494Z,94.16
2023-11-16T00:19:51.178Z,94.15
2023-11-16T00:22:20.406Z,94.37
2023-11-16T00:24:49.348Z,94.12
2023-11-16T00:27:19.635Z,94.11
2023-11-16T00:29:50.263Z,93.99
2023-11-16T00:32:21.631Z,93.88
2023-11-16T00:34:51.703Z,93.49
2023-11-16T00:37:21.088Z,93.93
2023-11-16T00:39:50.751Z,93.48
2023-11-16T00:42:20.059Z,93.92
2023-11-16T00:44:49.151Z,93.65
2023-11-16T00:47:20.034Z,94.13
2023-11-16T00:49:48.815Z,93.73
2023-11-16T00:52:21.481Z,93.70
2023-11-16T00:54:50.478Z,93.67
2023-11-16T00:57:21.740Z,94.19
2023-11-16T00:59:51.005Z,94.51
2023-11-16T01:02:23.082Z,94.37
2023-11-16T01:04:51.747Z,94.15
2023-11-16T01:07:22.896Z,94.42
2023-11-16T01:09:52.231Z,94.16
2023-11-16T01:12:21.478Z,94.38
2023-11-16T01:14:54.115Z,94.42
2023-11-16T01:17:28.106Z,94.81
2023-11-16T01:19:58.322Z,94.79
2023-11-16T01:22:41.861Z,94.08
2023-11-16T01:25:16.892Z,94.44
2023-11-16T01:27:52.554Z,94.42
2023-11-16T01:30:21.381Z,94.62
2023-11-16T01:32:50.480Z,94.39
2023-11-16T01:35:20.736Z,94.19
2023-11-16T01:37:53.525Z,94.59
2023-11-16T01:40:28.992Z,94.53
2023-11-16T01:42:58.985Z,94.51
2023-11-16T01:45:32.539Z,94.93
2023-11-16T01:48:03.756Z,94.67
2023-11-16T01:50:34.249Z,94.93
2023-11-16T01:53:10.747Z,94.72
2023-11-16T01:55:42.196Z,95.28
2023-11-16T01:58:13.721Z,95.16
2023-11-16T02:00:44.565Z,95.05
2023-11-16T02:03:16.282Z,95.02
2023-11-16T02:05:48.411Z,94.97
2023-11-16T02:08:21.623Z,94.73
2023-11-16T02:10:50.569Z,94.85
2023-11-16T02:13:22.109Z,95.24
2023-11-16T02:15:51.813Z,95.73
2023-11-16T02:18:21.261Z,95.04
2023-11-16T02:20:50.860Z,95.30
2023-11-16T02:23:25.013Z,95.31
2023-11-16T02:25:56.159Z,94.99
2023-11-16T02:28:28.153Z,95.27
2023-11-16T02:30:59.104Z,95.86
2023-11-16T02:33:29.008Z,95.56
2023-11-16T02:35:58.732Z,95.40
2023-11-16T02:38:29.434Z,94.90
2023-11-16T02:41:00.668Z,95.21
2023-11-16T02:43:31.013Z,95.30
2023-11-16T02:45:59.824Z,95.14
2023-11-16T02:48:29.149Z,95.23
2023-11-16T02:50:58.495Z,94.63
2023-11-16T02:53:33.826Z,94.93
2023-11-16T02:56:04.622Z,95.29
2023-11-16T02:58:34.912Z,95.01
2023-11-16T03:01:04.109Z,95.11
2023-11-16T03:03:33.525Z,95.52
2023-11-16T03:06:04.958Z,95.33
2023-11-16T03:08:35.401Z,95.10
2023-11-16T03:11:06.963Z,95.37
2023-11-16T03:13:36.177Z,95.25
2023-11-16T03:16:07.471Z,94.91
2023-11-16T03:18:37.196Z,95.18
2023-11-16T03:21:07.276Z,95.10
2023-11-16T03:23:37.498Z,95.20
2023-11-16T03:26:07.217Z,95.07
2023-11-16T03:28:37.345Z,95.31
2023-11-16T03:31:06.560Z,95.29
2023-11-16T03:33:38.603Z,95.21
2023-11-16T03:36:08.029Z,95.47
2023-11-16T03:38:39.000Z,95.46
2023-11-16T03:41:07.889Z,95.60
2023-11-16T03:43:36.817Z,95.48
2023-11-16T03:46:09.897Z,95.45
2023-11-16T03:48:39.536Z,95.36
2023-11-16T03:51:08.802Z,95.20
2023-11-16T03:53:40.046Z,95.68
2023-11-16T03:56:11.342Z,95.21
2023-11-16T03:58:40.475Z,95.65
2023-11-16T04:01:10.146Z,95.47
2023-11-16T04:03:39.608Z,96.25
2023-11-16T04:06:09.564Z,95.81
2023-11-16T04:08:40.724Z,96.00
2023-11-16T04:11:11.271Z,95.81
2023-11-16T04:13:40.348Z,95.62
2023-11-16T04:16:21.734Z,95.32
2023-11-16T04:18:51.683Z,95.34
2023-11-16T04:21:21.286Z,95.52
2023-11-16T04:23:53.766Z,95.11
2023-11-16T04:26:23.293Z,95.53
2023-11-16T04:28:56.548Z,95.66
2023-11-16T04:31:28.064Z,95.68
2023-11-16T04:34:00.609Z,95.05
2023-11-16T04:36:33.330Z,95.52
2023-11-16T04:39:05.190Z,95.65
2023-11-16T04:41:41.175Z,95.52
2023-11-16T04:44:10.916Z,95.49
2023-11-16T04:46:47.469Z,95.42
2023-11-16T04:49:17.526Z,95.39
2023-11-16T04:51:48.334Z,94.81
2023-11-16T04:54:35.270Z,95.07
2023-11-16T04:57:19.250Z,95.26
2023-11-16T05:00:11.264Z,95.05
2023-11-16T05:02:40.870Z,95.26
2023-11-16T05:05:12.257Z,94.97
2023-11-16T05:07:41.589Z,95.04
2023-11-16T05:10:12.927Z,94.81
2023-11-16T05:12:41.987Z,94.73
2023-11-16T05:15:12.372Z,94.75
2023-11-16T05:17:41.615Z,94.92
2023-11-16T05:20:11.602Z,95.21
2023-11-16T05:22:40.217Z,95.21
2023-11-16T05:25:11.676Z,95.41
2023-11-16T05:27:42.087Z,95.47
2023-11-16T05:30:18.232Z,95.55
2023-11-16T05:32:50.190Z,95.08
2023-11-16T05:35:21.101Z,95.54
2023-11-16T05:37:50.057Z,95.66
2023-11-16T05:40:20.362Z,95.38
2023-11-16T05:42:50.671Z,95.48
2023-11-16T05:45:20.135Z,95.46
2023-11-16T05:47:50.171Z,95.91
2023-11-16T05:50:25.598Z,95.83
2023-11-16T05:52:54.748Z,96.13
2023-11-16T05:55:27.499Z,95.11
2023-11-16T05:58:02.587Z,95.38
2023-11-16T06:00:33.030Z,95.31
2023-11-16T06:03:02.297Z,95.32
2023-11-16T06:05:32.262Z,94.69
2023-11-16T06:08:01.763Z,94.83
2023-11-16T06:10:31.685Z,94.40
2023-11-16T06:13:02.522Z,94.35
2023-11-16T06:15:31.936Z,94.27
2023-11-16T06:18:02.673Z,94.76
2023-11-16T06:20:32.490Z,93.84
2023-11-16T06:23:01.055Z,94.04
2023-11-16T06:25:30.253Z,94.62
2023-11-16T06:27:59.465Z,94.54
2023-11-16T06:30:30.618Z,94.87
2023-11-16T06:32:59.356Z,94.37
2023-11-16T06:35:28.289Z,94.44
2023-11-16T06:37:57.943Z,94.74
2023-11-16T06:40:26.940Z,93.48
2023-11-16T06:42:58.178Z,93.35
2023-11-16T06:45:28.417Z,93.77
2023-11-16T06:48:01.864Z,93.55
2023-11-16T06:50:35.333Z,93.87
2023-11-16T06:53:06.759Z,93.59
2023-11-16T06:55:35.897Z,93.01
2023-11-16T06:58:08.015Z,92.79
2023-11-16T07:00:39.969Z,92.38
2023-11-16T07:03:11.082Z,92.54
2023-11-16T07:05:40.209Z,92.22
2023-11-16T07:08:09.430Z,92.36
2023-11-16T07:10:38.689Z,92.39
2023-11-16T07:13:07.723Z,92.34
2023-11-16T07:15:38.918Z,92.06
2023-11-16T07:18:09.152Z,92.11
2023-11-16T07:20:44.612Z,92.56
2023-11-16T07:23:13.907Z,92.54
2023-11-16T07:25:45.347Z,92.88
2023-11-16T07:28:15.382Z,92.60
2023-11-16T07:30:47.154Z,92.46
2023-11-16T07:33:16.715Z,92.63
2023-11-16T07:35:48.297Z,92.46
2023-11-16T07:38:20.021Z,92.36
2023-11-16T07:40:49.190Z,91.88
2023-11-16T07:43:18.016Z,91.75
2023-11-16T07:45:49.339Z,91.08
2023-11-16T07:48:18.553Z,91.10
2023-11-16T07:50:48.729Z,90.06
2023-11-16T07:53:18.295Z,89.21
2023-11-16T07:55:50.585Z,89.45
2023-11-16T07:58:27.911Z,88.15
2023-11-16T08:01:05.479Z,87.13
2023-11-16T08:03:45.758Z,86.32
2023-11-16T08:06:17.858Z,88.12
2023-11-16T08:08:48.532Z,89.14
2023-11-16T08:11:17.967Z,88.32
2023-11-16T08:13:47.472Z,87.33
2023-11-16T08:16:22.655Z,87.44
2023-11-16T08:18:51.678Z,85.55
2023-11-16T08:21:22.611Z,86.70
2023-11-16T08:23:52.528Z,88.79
2023-11-16T08:26:24.907Z,86.13
2023-11-16T08:28:56.146Z,86.70
2023-11-16T08:31:28.176Z,83.36
2023-11-16T08:33:56.911Z,83.02
2023-11-16T08:36:27.943Z,84.23
2023-11-16T08:38:57.545Z,82.76
2023-11-16T08:41:27.332Z,81.58
2023-11-16T08:43:56.780Z,81.98
2023-11-16T08:46:32.306Z,82.12
2023-11-16T08:49:01.177Z,77.54
2023-11-16T08:51:31.903Z,78.03
2023-11-16T09:13:42.737Z,54.04
2023-11-16T09:16:11.852Z,50.50
2023-11-16T09:18:43.199Z,49.94
2023-11-16T09:21:16.400Z,50.45
2023-11-16T09:23:45.353Z,52.35
2023-11-16T09:26:14.294Z,53.45
2023-11-16T09:28:57.917Z,52.66
2023-11-16T09:31:31.012Z,50.82
2023-11-16T09:34:01.872Z,53.45
2023-11-16T09:36:31.304Z,56.34
2023-11-16T09:39:00.830Z,55.64
2023-11-16T09:41:30.123Z,54.65
2023-11-16T09:44:03.321Z,53.66
2023-11-16T09:46:33.629Z,51.96
2023-11-16T09:49:07.479Z,51.98
2023-11-16T09:51:40.771Z,51.04
2023-11-16T09:54:11.230Z,49.96
2023-11-16T09:56:47.468Z,51.62
2023-11-16T09:59:28.895Z,52.54
2023-11-16T10:02:11.312Z,53.29
2023-11-16T10:04:43.330Z,49.41
2023-11-16T10:07:19.774Z,51.27
2023-11-16T10:09:48.983Z,48.97
2023-11-16T10:12:18.617Z,49.53
2023-11-16T10:14:53.130Z,57.12
2023-11-16T10:17:26.599Z,55.36
2023-11-16T10:19:55.460Z,54.15
2023-11-16T10:22:24.443Z,53.24
2023-11-16T10:24:56.918Z,53.97
2023-11-16T10:27:33.825Z,52.33
2023-11-16T10:30:05.716Z,49.45
2023-11-16T10:32:37.858Z,50.66
2023-11-16T10:35:12.549Z,51.82
2023-11-16T10:37:46.028Z,55.71
2023-11-16T10:40:15.246Z,59.93
2023-11-16T10:42:47.070Z,62.71
2023-11-16T10:45:31.454Z,64.92
2023-11-16T10:48:06.671Z,66.38
2023-11-16T10:50:35.864Z,65.75
2023-11-16T10:53:08.447Z,66.00
2023-11-16T10:55:38.433Z,65.98
2023-11-16T10:58:07.505Z,63.95
2023-11-16T11:00:40.729Z,63.69
2023-11-16T11:03:12.312Z,63.70
2023-11-16T11:05:43.382Z,65.39
2023-11-16T11:08:19.025Z,65.87
2023-11-16T11:10:48.794Z,66.78
2023-11-16T11:13:28.003Z,68.13
2023-11-16T11:15:58.993Z,67.60
2023-11-16T11:18:29.335Z,68.63
2023-11-16T11:21:09.308Z,68.58
2023-11-16T11:23:39.672Z,68.40
2023-11-16T11:26:09.146Z,68.70
2023-11-16T11:28:40.193Z,69.50
2023-11-16T11:31:12.298Z,70.05
2023-11-16T11:33:43.600Z,69.94
2023-11-16T11:36:23.903Z,70.85
2023-11-16T11:38:54.765Z,71.15
2023-11-16T11:41:25.306Z,70.48
2023-11-16T11:43:54.644Z,71.72
2023-11-16T11:46:24.636Z,71.62
2023-11-16T11:48:55.492Z,71.10
2023-11-16T11:51:29.913Z,71.51
2023-11-16T11:53:58.993Z,70.71
2023-11-16T11:56:28.291Z,70.36
2023-11-16T11:58:59.840Z,71.33
2023-11-16T12:01:29.851Z,70.32
2023-11-16T12:04:10.185Z,71.46
2023-11-16T12:06:45.896Z,71.22
2023-11-16T12:09:16.976Z,70.99
2023-11-16T12:11:45.616Z,71.66
2023-11-16T12:14:15.590Z,71.12
2023-11-16T12:16:48.809Z,71.92
2023-11-16T12:19:23.331Z,72.72
2023-11-16T12:21:53.024Z,73.32
2023-11-16T12:24:25.884Z,73.63
2023-11-16T12:26:54.798Z,74.10
2023-11-16T12:29:28.152Z,74.79
2023-11-16T12:32:01.141Z,73.72
2023-11-16T12:34:30.223Z,74.27
2023-11-16T12:36:59.787Z,74.04
2023-11-16T12:39:29.021Z,73.59
2023-11-16T12:41:58.567Z,74.58
2023-11-16T12:44:27.761Z,75.05
2023-11-16T12:46:59.283Z,75.00
2023-11-16T12:49:28.819Z,74.80
2023-11-16T12:51:58.082Z,75.29
2023-11-16T12:54:27.249Z,76.22
2023-11-16T12:56:56.882Z,76.24
2023-11-16T12:59:25.904Z,76.21
2023-11-16T13:01:54.832Z,76.98
2023-11-16T13:04:26.626Z,77.45
2023-11-16T13:06:57.003Z,78.09
2023-11-16T13:09:26.381Z,77.41
2023-11-16T13:12:02.591Z,77.88
2023-11-16T13:14:37.589Z,78.24
2023-11-16T13:17:06.447Z,78.67
2023-11-16T13:19:37.308Z,79.77
2023-11-16T13:22:06.326Z,79.38
2023-11-16T13:24:35.412Z,79.86
2023-11-16T13:27:06.795Z,79.31
2023-11-16T13:29:40.371Z,79.16
2023-11-16T13:32:12.090Z,79.05
2023-11-16T13:34:44.629Z,78.83
2023-11-16T13:37:13.278Z,79.07
2023-11-16T13:39:45.219Z,79.08
2023-11-16T13:42:14.352Z,77.84
2023-11-16T13:44:43.890Z,77.23
2023-11-16T13:47:12.679Z,77.68
2023-11-16T13:49:45.030Z,78.36
2023-11-16T13:52:14.206Z,77.41
2023-11-16T13:54:46.121Z,76.32
2023-11-16T13:57:15.201Z,76.90
2023-11-16T13:59:46.372Z,77.10
2023-11-16T14:02:18.341Z,77.33
2023-11-16T14:04:49.080Z,76.72
2023-11-16T14:07:18.158Z,77.47
2023-11-16T14:09:47.244Z,77.72
2023-11-16T14:12:15.996Z,77.83
2023-11-16T14:14:45.247Z,78.71
2023-11-16T14:17:14.815Z,77.60
2023-11-16T14:19:43.844Z,77.95
2023-11-16T14:22:14.380Z,78.20
2023-11-16T14:24:47.498Z,78.47
2023-11-16T14:27:16.227Z,79.14
2023-11-16T14:29:45.865Z,79.80
2023-11-16T14:32:14.810Z,79.13
2023-11-16T14:34:44.475Z,79.78
2023-11-16T14:37:15.155Z,80.55
2023-11-16T14:39:44.588Z,82.25
2023-11-16T14:42:13.483Z,82.22
2023-11-16T14:44:42.700Z,84.20
2023-11-16T14:47:13.736Z,84.54
2023-11-16T14:49:44.739Z,85.85
2023-11-16T14:52:17.412Z,85.59
2023-11-16T14:54:48.128Z,86.89
2023-11-16T14:57:17.020Z,86.84
2023-11-16T14:59:47.052Z,87.14
2023-11-16T15:02:16.220Z,87.34
2023-11-16T15:04:46.143Z,87.92
2023-11-16T15:07:18.621Z,88.35
2023-11-16T15:09:47.869Z,88.33
2023-11-16T15:12:17.119Z,88.98
2023-11-16T15:14:46.819Z,88.57
2023-11-16T15:17:15.729Z,88.91
2023-11-16T15:19:45.134Z,89.43
2023-11-16T15:22:13.854Z,88.85
2023-11-16T15:24:44.484Z,88.42
2023-11-16T15:27:14.125Z,88.35
2023-11-16T15:29:47.008Z,89.55
2023-11-16T15:32:19.461Z,89.54
2023-11-16T15:34:51.090Z,90.13
2023-11-16T15:37:22.032Z,90.46
2023-11-16T15:39:54.623Z,90.45
2023-11-16T15:42:27.313Z,90.53
2023-11-16T15:44:56.718Z,89.95
2023-11-16T15:47:25.555Z,91.42
2023-11-16T15:49:54.900Z,89.80
2023-11-16T15:52:24.511Z,89.55
2023-11-16T15:54:55.275Z,90.89
2023-11-16T15:57:27.752Z,90.93
2023-11-16T15:59:59.111Z,90.75
2023-11-16T16:02:30.815Z,90.47
2023-11-16T16:05:01.665Z,89.85
2023-11-16T16:07:33.322Z,89.57
2023-11-16T16:10:06.639Z,91.01
2023-11-16T16:12:36.102Z,90.25
2023-11-16T16:15:07.562Z,90.12
2023-11-16T16:17:36.921Z,89.58
2023-11-16T16:20:07.229Z,90.62
2023-11-16T16:22:36.445Z,91.06
2023-11-16T16:25:12.830Z,90.54
2023-11-16T16:27:41.657Z,89.64
2023-11-16T16:30:14.940Z,90.38
2023-11-16T16:32:44.769Z,91.37
2023-11-16T16:35:14.213Z,90.71
2023-11-16T16:37:42.945Z,91.03
2023-11-16T16:40:16.115Z,90.99
2023-11-16T16:42:46.078Z,92.07
2023-11-16T16:45:16.667Z,91.63
2023-11-16T16:47:52.945Z,92.04
2023-11-16T16:50:28.684Z,91.92
2023-11-16T16:52:57.334Z,92.61
2023-11-16T16:55:27.962Z,91.89
2023-11-16T16:57:56.716Z,92.83
2023-11-16T17:00:27.935Z,93.29
2023-11-16T17:02:56.820Z,92.73
2023-11-16T17:05:25.829Z,92.18
2023-11-16T17:07:54.735Z,92.88
2023-11-16T17:10:28.283Z,93.49
2023-11-16T17:12:58.444Z,92.64
2023-11-16T17:15:32.110Z,92.34
2023-11-16T17:18:01.414Z,93.21
2023-11-16T17:20:32.351Z,93.29
2023-11-16T17:23:01.069Z,93.53
2023-11-16T17:25:36.196Z,94.04
2023-11-16T17:28:09.821Z,93.77
2023-11-16T17:30:39.536Z,93.18
2023-11-16T17:33:11.215Z,93.84
2023-11-16T17:35:43.396Z,93.56
2023-11-16T17:38:12.006Z,93.95
2023-11-16T17:40:42.932Z,94.24
2023-11-16T17:43:13.390Z,94.33
2023-11-16T17:45:42.539Z,93.57
2023-11-16T17:48:12.535Z,93.48
2023-11-16T17:50:42.594Z,93.99
2023-11-16T17:53:13.222Z,93.78
2023-11-16T17:55:44.134Z,93.91
2023-11-16T17:58:15.425Z,93.99
2023-11-16T18:00:44.906Z,93.28
2023-11-16T18:03:13.997Z,93.18
2023-11-16T18:05:43.566Z,94.49
2023-11-16T18:08:13.260Z,94.30
2023-11-16T18:10:45.441Z,94.05
2023-11-16T18:13:18.595Z,93.92
2023-11-16T18:15:48.090Z,94.39
2023-11-16T18:18:19.431Z,93.98
2023-11-16T18:20:50.720Z,94.71
2023-11-16T18:23:21.204Z,94.62
2023-11-16T18:25:50.730Z,94.66
2023-11-16T18:28:21.113Z,93.80
2023-11-16T18:30:53.137Z,94.61
2023-11-16T18:33:22.954Z,93.95
2023-11-16T18:35:55.344Z,93.94
2023-11-16T18:38:25.349Z,94.25
2023-11-16T18:40:54.814Z,94.18
2023-11-16T18:43:26.288Z,94.49
2023-11-16T18:45:56.644Z,94.22
2023-11-16T18:48:27.280Z,93.89
2023-11-16T18:50:56.584Z,94.87
2023-11-16T18:53:25.560Z,94.51
2023-11-16T18:55:59.287Z,94.03
2023-11-16T18:58:30.142Z,94.75
2023-11-16T19:01:00.028Z,94.71
2023-11-16T19:03:29.365Z,94.22
2023-11-16T19:05:58.807Z,94.60
2023-11-16T19:08:27.604Z,93.66
2023-11-16T19:10:56.836Z,94.17
2023-11-16T19:13:27.824Z,94.11
2023-11-16T19:15:59.140Z,94.63
2023-11-16T19:18:28.460Z,93.39
2023-11-16T19:20:58.663Z,93.78
2023-11-16T19:23:28.444Z,93.78
2023-11-16T19:25:59.820Z,93.83
2023-11-16T19:28:30.152Z,93.57
2023-11-16T19:31:01.969Z,93.86
2023-11-16T19:33:31.272Z,93.82
2023-11-16T19:36:00.417Z,94.31
2023-11-16T19:38:31.507Z,94.33
2023-11-16T19:41:01.997Z,93.95
2023-11-16T19:43:30.871Z,93.49
2023-11-16T19:46:04.888Z,93.83
2023-11-16T19:48:34.562Z,94.11
2023-11-16T19:51:07.271Z,94.38
2023-11-16T19:53:36.394Z,94.11
2023-11-16T19:56:07.276Z,93.87
2023-11-16T19:58:36.035Z,93.93
2023-11-16T20:01:07.182Z,93.58
2023-11-16T20:03:36.324Z,93.72
2023-11-16T20:06:07.342Z,94.45
2023-11-16T20:08:36.820Z,93.98
2023-11-16T20:11:07.294Z,93.80
2023-11-16T20:13:36.322Z,94.11
2023-11-16T20:16:11.198Z,94.31
2023-11-16T20:18:41.790Z,93.96
2023-11-16T20:21:10.990Z,94.37
2023-11-16T20:23:40.161Z,94.62
2023-11-16T20:26:11.506Z,94.17
2023-11-16T20:28:42.384Z,94.49
2023-11-16T20:31:13.157Z,95.04
2023-11-16T20:33:43.053Z,95.20
2023-11-16T20:36:16.012Z,94.38
2023-11-16T20:38:45.318Z,94.20
2023-11-16T20:41:14.064Z,95.30
2023-11-16T20:43:42.556Z,95.91
2023-11-16T20:46:13.910Z,94.98
2023-11-16T20:48:43.240Z,95.15
2023-11-16T20:51:12.678Z,95.33
2023-11-16T20:53:42.266Z,94.70
2023-11-16T20:56:11.908Z,94.58
2023-11-16T20:58:41.637Z,94.59
2023-11-16T21:01:11.207Z,95.17
2023-11-16T21:03:43.767Z,95.00
2023-11-16T21:06:13.887Z,94.84
2023-11-16T21:08:44.596Z,95.31
2023-11-16T21:11:13.988Z,94.96
2023-11-16T21:13:42.994Z,94.28
2023-11-16T21:16:12.793Z,94.76
2023-11-16T21:18:43.058Z,95.78
2023-11-16T21:21:13.131Z,94.90
2023-11-16T21:23:44.389Z,94.45
2023-11-16T21:26:14.185Z,94.23
2023-11-16T21:28:45.244Z,94.51
2023-11-16T21:31:15.163Z,94.74
2023-11-16T21:33:45.802Z,94.77
2023-11-16T21:36:18.115Z,94.61
2023-11-16T21:38:46.913Z,94.24
2023-11-16T21:41:20.953Z,94.30
2023-11-16T21:43:51.466Z,94.28
2023-11-16T21:46:20.862Z,94.53
2023-11-16T21:48:51.121Z,94.64
2023-11-16T21:51:20.496Z,94.09
2023-11-16T21:53:49.054Z,94.10
2023-11-16T21:56:18.245Z,93.65
2023-11-16T21:58:46.712Z,94.52
2023-11-16T22:01:17.098Z,94.49
2023-11-16T22:03:48.416Z,94.66
2023-11-16T22:06:19.494Z,94.78
2023-11-16T22:08:48.260Z,93.95
2023-11-16T22:11:17.630Z,93.71
2023-11-16T22:13:47.282Z,93.62
2023-11-16T22:16:16.991Z,94.30
2023-11-16T22:18:45.657Z,94.13
2023-11-16T22:21:14.885Z,94.15
2023-11-16T22:23:44.961Z,94.37
2023-11-16T22:26:14.517Z,94.17
2023-11-16T22:28:43.859Z,94.08
2023-11-16T22:31:14.119Z,93.72
2023-11-16T22:33:44.219Z,93.53
2023-11-16T22:36:18.467Z,93.21
2023-11-16T22:38:51.953Z,93.30
2023-11-16T22:41:21.194Z,93.81
2023-11-16T22:43:49.969Z,93.91
2023-11-16T22:46:19.360Z,94.04
2023-11-16T22:48:48.877Z,94.36
2023-11-16T22:51:18.095Z,94.36
2023-11-16T22:53:46.957Z,93.99
2023-11-16T22:56:22.625Z,93.80
2023-11-16T22:58:51.723Z,93.77
2023-11-16T23:01:23.800Z,94.33
2023-11-16T23:03:54.131Z,94.19
2023-11-16T23:06:23.331Z,94.27
2023-11-16T23:08:53.174Z,93.92
2023-11-16T23:11:23.529Z,94.11
2023-11-16T23:13:52.357Z,94.43
2023-11-16T23:16:21.198Z,94.19
2023-11-16T23:18:50.873Z,93.76
2023-11-16T23:21:33.442Z,94.29
2023-11-16T23:24:10.539Z,94.83
2023-11-16T23:26:42.526Z,94.25
2023-11-16T23:29:11.757Z,94.58
2023-11-16T23:31:41.946Z,94.65
2023-11-16T23:34:10.902Z,93.69
2023-11-16T23:36:39.993Z,93.91
2023-11-16T23:39:08.652Z,93.74
2023-11-16T23:41:37.696Z,93.22
2023-11-16T23:44:08.390Z,92.88
2023-11-16T23:46:37.475Z,93.13
2023-11-16T23:49:08.618Z,93.34
2023-11-16T23:51:40.008Z,93.12
2023-11-16T23:54:09.796Z,92.93
2023-11-16T23:56:38.820Z,93.07
2023-11-16T23:59:09.802Z,93.02
